METAR Data
IDs: Format: Raw Decoded Include TAF

Data at: 1638 UTC 03 Dec 2021

KMTH 031553Z AUTO 03011KT 10SM CLR 23/18 A3012 RMK AO2 SLP200 T02330178